Time;durP1;ratioP1;P1;durP2;ratioP2;P2;SDS_P1;SDS_P2;PMS_P1;PMS_P2;Temp;Humidity;BMP_temperature;BMP_pressure;BME280_temperature;BME280_humidity;BME280_pressure;Samples;Min_cycle;Max_cycle;Signal;HPM_P1;HPM_P2
2020/12/10 00:01:10;;;;;;;1.60;0.95;;;27.20;89.60;;;;;;5012947;28;20096;-88
2020/12/10 00:03:37;;;;;;;3.20;1.30;;;27.20;89.70;;;;;;5013596;28;20041;-89
2020/12/10 00:06:05;;;;;;;4.60;1.50;;;27.10;89.90;;;;;;4995348;28;20350;-88
2020/12/10 00:08:32;;;;;;;2.42;1.20;;;26.90;90.10;;;;;;5012901;28;20034;-90
2020/12/10 00:10:58;;;;;;;2.80;1.17;;;26.80;90.10;;;;;;4994536;28;20026;-89
2020/12/10 00:13:25;;;;;;;4.63;1.90;;;26.80;90.00;;;;;;4993835;28;20038;-88
2020/12/10 00:15:52;;;;;;;5.35;1.42;;;26.80;89.80;;;;;;4992829;28;20218;-87
2020/12/10 00:18:19;;;;;;;1.98;1.27;;;26.80;89.60;;;;;;4996376;28;20027;-91
2020/12/10 00:20:45;;;;;;;2.60;1.20;;;26.80;89.40;;;;;;4996714;28;20026;-88
2020/12/10 00:23:12;;;;;;;4.15;1.38;;;26.70;89.30;;;;;;4995691;28;20034;-88
2020/12/10 00:25:38;;;;;;;4.22;1.30;;;26.60;89.90;;;;;;4995800;28;20326;-88
2020/12/10 00:28:10;;;;;;;3.72;2.00;;;26.60;89.10;;;;;;4995208;28;20045;-88
2020/12/10 00:30:36;;;;;;;1.83;1.02;;;26.50;89.40;;;;;;4993981;28;20050;-86
2020/12/10 00:33:03;;;;;;;1.17;0.98;;;26.50;89.20;;;;;;5008296;28;20038;-87
2020/12/10 00:35:30;;;;;;;3.28;1.45;;;26.50;89.40;;;;;;4989439;28;20089;-87
2020/12/10 00:37:56;;;;;;;5.65;1.80;;;26.50;89.40;;;;;;5007298;28;20247;-88
2020/12/10 00:40:23;;;;;;;2.38;2.00;;;26.50;89.20;;;;;;4991869;28;20026;-91
2020/12/10 00:42:51;;;;;;;4.43;1.60;;;26.40;89.20;;;;;;5011494;28;20214;-86
2020/12/10 00:45:19;;;;;;;2.13;1.52;;;26.40;88.80;;;;;;5012124;28;20022;-89
2020/12/10 00:47:55;;;;;;;4.78;1.58;;;26.40;88.80;;;;;;5000472;28;20037;-87
2020/12/10 00:50:47;;;;;;;4.00;1.42;;;26.40;89.30;;;;;;4996739;28;20035;-84
2020/12/10 00:53:14;;;;;;;1.85;1.42;;;26.30;89.80;;;;;;4996668;28;20100;-87
2020/12/10 00:55:41;;;;;;;2.67;1.50;;;26.20;88.90;;;;;;4992366;28;20101;-85
2020/12/10 00:58:07;;;;;;;1.60;1.10;;;26.20;88.90;;;;;;4992757;28;20034;-88
2020/12/10 01:00:34;;;;;;;4.53;1.10;;;26.20;89.00;;;;;;4990797;28;20117;-87
2020/12/10 01:03:02;;;;;;;1.85;1.05;;;26.10;88.50;;;;;;4990332;28;20034;-82
2020/12/10 01:05:28;;;;;;;1.77;1.10;;;26.10;89.10;;;;;;4990942;28;20141;-84
2020/12/10 01:07:55;;;;;;;2.63;1.17;;;26.20;88.60;;;;;;5008227;28;20022;-87
2020/12/10 01:10:22;;;;;;;2.35;1.60;;;26.10;88.20;;;;;;4991166;28;20053;-88
2020/12/10 01:12:50;;;;;;;2.47;1.83;;;26.20;88.10;;;;;;5013389;28;20034;-87
2020/12/10 01:17:52;;;;;;;7.78;1.17;;;26.10;88.10;;;;;;4972387;26;20283;-85
2020/12/10 01:20:19;;;;;;;1.88;1.20;;;26.20;88.20;;;;;;5013146;28;20025;-86
2020/12/10 01:22:45;;;;;;;1.95;1.20;;;26.10;87.80;;;;;;4996039;28;20022;-86
2020/12/10 01:25:12;;;;;;;1.73;1.20;;;26.10;87.60;;;;;;5013239;28;20390;-86
2020/12/10 01:27:39;;;;;;;2.25;0.80;;;26.10;88.00;;;;;;5014010;28;20026;-87
2020/12/10 01:30:08;;;;;;;4.20;1.08;;;26.00;87.60;;;;;;5000175;28;20025;-87
2020/12/10 01:32:36;;;;;;;1.48;1.23;;;26.00;87.80;;;;;;5019505;28;20081;-84
2020/12/10 01:35:09;;;;;;;4.53;0.77;;;25.90;88.10;;;;;;5017557;28;20037;-83
2020/12/10 01:37:42;;;;;;;1.58;0.80;;;25.90;88.00;;;;;;5000773;28;20041;-83
2020/12/10 01:40:09;;;;;;;2.33;0.95;;;25.90;87.80;;;;;;5000648;28;20042;-84
2020/12/10 01:42:39;;;;;;;3.92;0.88;;;25.90;88.00;;;;;;5013482;28;20064;-85
2020/12/10 01:45:07;;;;;;;1.58;1.00;;;25.80;87.80;;;;;;4991953;28;20022;-86
2020/12/10 01:47:34;;;;;;;2.20;1.02;;;25.80;88.00;;;;;;4991756;28;20234;-85
2020/12/10 01:50:01;;;;;;;1.52;0.70;;;25.80;88.10;;;;;;4991728;28;20097;-85
2020/12/10 01:52:28;;;;;;;1.27;0.75;;;25.80;87.70;;;;;;4991424;28;20035;-84
2020/12/10 01:54:54;;;;;;;3.97;1.85;;;25.70;87.80;;;;;;4992493;28;20034;-86
2020/12/10 01:57:21;;;;;;;3.63;2.53;;;25.70;87.90;;;;;;4992971;28;20026;-86
2020/12/10 01:59:51;;;;;;;5.30;2.58;;;25.70;87.80;;;;;;4990825;28;20051;-85
2020/12/10 02:02:21;;;;;;;3.20;2.38;;;25.70;87.60;;;;;;5007818;28;20030;-87
2020/12/10 02:04:57;;;;;;;4.18;3.13;;;25.70;86.90;;;;;;4990556;28;20293;-87
2020/12/10 02:07:23;;;;;;;6.05;2.42;;;25.60;87.50;;;;;;4989787;28;20046;-88
2020/12/10 02:09:50;;;;;;;4.10;2.85;;;25.60;87.30;;;;;;5008592;28;20082;-87
2020/12/10 02:12:18;;;;;;;4.93;3.10;;;25.60;86.90;;;;;;5037353;23;20043;-89
2020/12/10 02:14:48;;;;;;;5.47;2.17;;;25.60;86.40;;;;;;4993262;28;20097;-87
2020/12/10 02:17:18;;;;;;;2.17;1.15;;;25.60;86.20;;;;;;4979310;28;20038;-88
2020/12/10 02:19:46;;;;;;;2.08;1.30;;;25.60;85.70;;;;;;4995854;28;20037;-86
2020/12/10 02:22:14;;;;;;;1.33;0.80;;;25.60;86.00;;;;;;4976553;28;20039;-87
2020/12/10 02:24:40;;;;;;;1.58;0.90;;;25.50;86.70;;;;;;5009203;28;20029;-88
2020/12/10 02:27:08;;;;;;;2.58;1.25;;;25.60;86.40;;;;;;5011080;28;20038;-87
2020/12/10 02:29:38;;;;;;;1.83;0.95;;;25.60;86.20;;;;;;4994706;28;20211;-87
2020/12/10 02:32:06;;;;;;;2.55;1.10;;;25.50;86.10;;;;;;4993848;28;20037;-87
2020/12/10 02:34:33;;;;;;;7.50;1.17;;;25.40;86.20;;;;;;4992661;28;20041;-86
2020/12/10 02:37:00;;;;;;;4.88;1.73;;;25.40;86.60;;;;;;5009804;28;20037;-86
2020/12/10 02:39:34;;;;;;;5.05;1.70;;;25.40;87.00;;;;;;5014050;28;20030;-86
2020/12/10 02:42:01;;;;;;;11.32;2.83;;;25.40;87.00;;;;;;5011779;28;20042;-87
2020/12/10 02:44:29;;;;;;;12.27;3.20;;;25.40;87.20;;;;;;5012918;28;20030;-86
2020/12/10 02:46:59;;;;;;;7.15;2.20;;;25.40;87.20;;;;;;5083583;23;20100;-87
2020/12/10 02:49:27;;;;;;;9.70;2.72;;;25.30;87.70;;;;;;5050887;28;20056;-88
2020/12/10 02:51:55;;;;;;;8.30;2.15;;;25.30;87.90;;;;;;5089216;22;20081;-87
2020/12/10 02:54:58;;;;;;;4.60;1.23;;;25.20;87.90;;;;;;5033016;28;20034;-86
2020/12/10 02:57:29;;;;;;;1.67;0.93;;;25.20;88.60;;;;;;5020268;28;20053;-87
2020/12/10 02:59:56;;;;;;;4.78;1.30;;;25.20;88.40;;;;;;5000087;28;20041;-88
2020/12/10 03:02:24;;;;;;;2.42;1.20;;;25.10;89.20;;;;;;5016100;28;20045;-88
2020/12/10 03:04:51;;;;;;;4.13;1.08;;;25.10;89.30;;;;;;5012070;28;20030;-86
2020/12/10 03:07:23;;;;;;;2.88;1.17;;;25.00;88.70;;;;;;5019503;28;20034;-86
2020/12/10 03:09:50;;;;;;;1.35;0.90;;;25.00;88.80;;;;;;5160516;23;20071;-87
2020/12/10 03:12:22;;;;;;;2.17;0.75;;;25.00;87.90;;;;;;5020147;28;20026;-87
2020/12/10 03:14:49;;;;;;;2.00;0.90;;;25.00;88.10;;;;;;4996603;28;20061;-89
2020/12/10 03:17:18;;;;;;;2.42;1.00;;;25.00;88.20;;;;;;5016699;28;20068;-87
2020/12/10 03:19:56;;;;;;;2.08;0.88;;;24.90;88.70;;;;;;5014610;28;20049;-89
2020/12/10 03:22:23;;;;;;;1.50;0.90;;;24.90;89.10;;;;;;5010425;28;20074;-89
2020/12/10 03:24:49;;;;;;;1.10;0.90;;;24.90;89.20;;;;;;5027240;28;20064;-90
2020/12/10 03:27:17;;;;;;;2.45;1.00;;;24.90;88.90;;;;;;5015824;28;20055;-89
2020/12/10 03:29:46;;;;;;;1.55;0.68;;;24.90;88.90;;;;;;5012995;28;20322;-89
2020/12/10 03:32:16;;;;;;;3.17;1.10;;;24.90;88.90;;;;;;5001195;28;20088;-88
2020/12/10 03:34:42;;;;;;;1.63;0.80;;;24.90;88.40;;;;;;4994858;28;20040;-89
2020/12/10 03:37:11;;;;;;;2.63;0.73;;;24.90;87.60;;;;;;5011497;28;20037;-89
2020/12/10 03:39:37;;;;;;;1.67;0.80;;;25.00;87.10;;;;;;5011424;28;20109;-89
2020/12/10 03:42:04;;;;;;;1.70;0.90;;;25.00;86.70;;;;;;5013081;28;20033;-89
2020/12/10 03:47:06;;;;;;;0.90;0.80;;;25.00;87.50;;;;;;4996072;23;20055;-87
2020/12/10 03:49:33;;;;;;;2.00;1.13;;;25.00;87.30;;;;;;4972024;29;20043;-88
2020/12/10 03:51:59;;;;;;;1.27;0.77;;;24.90;87.30;;;;;;4970831;29;20031;-87
2020/12/10 03:54:26;;;;;;;1.38;1.00;;;25.00;87.70;;;;;;4955547;29;20263;-87
2020/12/10 03:56:52;;;;;;;0.98;0.90;;;25.00;87.70;;;;;;4954799;29;20031;-87
2020/12/10 03:59:19;;;;;;;1.02;0.80;;;25.00;87.80;;;;;;4971203;29;20027;-88
2020/12/10 04:01:46;;;;;;;1.30;0.90;;;25.00;88.80;;;;;;4955501;29;20098;-88
2020/12/10 04:04:12;;;;;;;2.40;0.90;;;24.90;87.30;;;;;;4953569;29;20027;-87
2020/12/10 04:06:43;;;;;;;1.75;0.80;;;24.90;87.60;;;;;;4955449;29;20038;-87
2020/12/10 04:09:13;;;;;;;1.92;0.80;;;24.90;87.40;;;;;;4953922;28;20031;-87
2020/12/10 04:11:40;;;;;;;0.90;0.60;;;24.90;85.90;;;;;;4954739;29;20031;-87
2020/12/10 04:14:07;;;;;;;3.30;0.82;;;24.90;85.40;;;;;;4954067;29;20031;-87
2020/12/10 04:16:34;;;;;;;1.38;0.93;;;24.90;84.00;;;;;;4953535;29;20038;-87
2020/12/10 04:19:00;;;;;;;1.88;0.70;;;24.90;83.30;;;;;;4953528;29;20034;-87
2020/12/10 04:21:27;;;;;;;1.73;0.95;;;24.90;83.40;;;;;;4954098;29;20031;-86
2020/12/10 04:23:54;;;;;;;1.98;0.95;;;25.00;81.60;;;;;;4971703;29;20049;-87
2020/12/10 04:26:20;;;;;;;4.30;1.83;;;25.00;83.20;;;;;;4972663;29;20026;-87
2020/12/10 04:28:47;;;;;;;3.55;1.67;;;25.00;84.70;;;;;;4974116;29;20041;-86
2020/12/10 04:31:16;;;;;;;3.03;1.50;;;24.90;85.40;;;;;;4973082;29;20032;-86
2020/12/10 04:33:43;;;;;;;1.55;1.20;;;24.80;85.40;;;;;;4971987;29;20031;-87
2020/12/10 04:36:10;;;;;;;1.55;0.80;;;24.80;86.30;;;;;;4955167;29;20051;-87
2020/12/10 04:38:37;;;;;;;1.38;1.00;;;24.70;85.90;;;;;;4953411;29;20038;-87
2020/12/10 04:41:05;;;;;;;1.33;0.80;;;24.70;85.90;;;;;;4953114;28;20035;-87
2020/12/10 04:43:32;;;;;;;2.30;0.70;;;24.60;86.60;;;;;;4953336;29;20031;-88
2020/12/10 04:46:04;;;;;;;2.03;0.70;;;24.60;86.80;;;;;;4968935;28;20047;-87
2020/12/10 04:48:34;;;;;;;1.00;0.80;;;24.50;87.60;;;;;;4952913;29;20057;-87
2020/12/10 04:51:04;;;;;;;1.42;0.77;;;24.40;87.20;;;;;;4953708;28;20350;-88
2020/12/10 04:53:31;;;;;;;1.70;0.80;;;24.40;88.30;;;;;;4970308;29;20034;-88
2020/12/10 04:56:05;;;;;;;1.50;0.75;;;24.20;88.20;;;;;;4972095;29;20326;-87
2020/12/10 04:58:31;;;;;;;0.93;0.68;;;24.20;89.40;;;;;;4955938;29;20027;-88
2020/12/10 05:01:00;;;;;;;0.93;0.73;;;24.20;88.70;;;;;;4953985;29;20062;-86
2020/12/10 05:03:27;;;;;;;4.05;0.90;;;24.30;88.70;;;;;;4954613;29;20031;-87
2020/12/10 05:06:07;;;;;;;0.77;0.75;;;24.30;88.70;;;;;;4954044;29;20050;-87
2020/12/10 05:08:33;;;;;;;1.40;1.05;;;24.30;88.70;;;;;;4971832;29;20027;-89
2020/12/10 05:11:00;;;;;;;2.08;0.90;;;24.20;88.90;;;;;;4953738;29;20039;-88
2020/12/10 05:13:27;;;;;;;2.45;0.90;;;24.30;89.00;;;;;;4949771;29;20098;-88
2020/12/10 05:15:54;;;;;;;2.67;1.17;;;24.30;88.80;;;;;;4950183;29;20093;-88
2020/12/10 05:18:21;;;;;;;2.70;1.27;;;24.20;89.10;;;;;;4949818;29;20031;-88
2020/12/10 05:20:48;;;;;;;2.83;1.13;;;24.20;88.90;;;;;;4949974;29;20078;-87
2020/12/10 05:23:29;;;;;;;2.25;1.15;;;24.20;88.70;;;;;;4950330;29;20038;-87
2020/12/10 05:25:56;;;;;;;3.97;1.45;;;24.20;88.90;;;;;;4949810;29;20066;-87
2020/12/10 05:28:25;;;;;;;6.60;1.50;;;24.20;89.20;;;;;;4949577;29;20038;-85
2020/12/10 05:31:04;;;;;;;5.07;1.38;;;24.10;89.00;;;;;;4966341;29;20050;-85
2020/12/10 05:33:31;;;;;;;4.88;1.52;;;24.20;89.00;;;;;;4949230;29;20035;-86
2020/12/10 05:36:09;;;;;;;5.65;1.60;;;24.20;87.50;;;;;;4949337;29;20034;-86
2020/12/10 05:38:54;;;;;;;5.13;1.55;;;24.20;86.90;;;;;;4965794;29;20031;-86
2020/12/10 05:41:23;;;;;;;3.13;1.15;;;24.20;86.00;;;;;;4966062;28;20327;-87
2020/12/10 05:43:50;;;;;;;2.63;0.77;;;24.20;85.80;;;;;;4965148;29;20031;-87
2020/12/10 05:46:22;;;;;;;3.97;1.02;;;24.20;85.40;;;;;;4966434;28;20069;-87
2020/12/10 05:48:50;;;;;;;3.58;1.15;;;24.20;85.30;;;;;;4965685;29;20039;-86
2020/12/10 05:51:21;;;;;;;3.15;1.13;;;24.20;85.70;;;;;;4966719;29;20044;-86
2020/12/10 05:53:49;;;;;;;9.88;1.40;;;24.20;86.40;;;;;;4965886;29;20031;-86
2020/12/10 05:56:17;;;;;;;3.10;1.23;;;24.20;86.50;;;;;;4965172;29;20110;-86
2020/12/10 05:58:49;;;;;;;8.35;2.00;;;24.20;87.20;;;;;;4949003;29;20027;-87
2020/12/10 06:01:33;;;;;;;6.80;1.70;;;24.10;85.90;;;;;;4967231;29;20031;-87
2020/12/10 06:04:01;;;;;;;13.55;3.17;;;24.10;87.10;;;;;;4964001;28;20058;-87
2020/12/10 06:06:29;;;;;;;12.63;2.95;;;24.10;86.80;;;;;;4948706;29;20046;-87
2020/12/10 06:09:07;;;;;;;18.33;3.25;;;24.10;87.00;;;;;;4964973;29;20032;-87
2020/12/10 06:11:34;;;;;;;8.77;2.65;;;24.10;86.40;;;;;;4965723;29;20039;-88
2020/12/10 06:14:03;;;;;;;8.63;2.80;;;24.10;86.60;;;;;;4948539;29;20329;-86
2020/12/10 06:16:33;;;;;;;10.60;2.80;;;24.10;86.90;;;;;;4965905;29;20031;-87
2020/12/10 06:19:10;;;;;;;11.18;2.58;;;24.10;87.00;;;;;;4965693;29;20376;-87
2020/12/10 06:21:43;;;;;;;8.82;2.10;;;24.00;88.10;;;;;;4964891;29;20039;-87
2020/12/10 06:24:25;;;;;;;8.38;2.17;;;23.90;87.80;;;;;;4948303;28;20027;-87
2020/12/10 06:26:56;;;;;;;5.47;1.90;;;24.00;88.30;;;;;;4965816;29;20027;-88
2020/12/10 06:29:31;;;;;;;3.85;1.45;;;23.90;88.10;;;;;;4948282;28;20269;-88
2020/12/10 06:32:01;;;;;;;7.00;1.60;;;23.90;86.80;;;;;;4965765;29;20054;-87
2020/12/10 06:34:37;;;;;;;3.88;1.50;;;24.00;85.40;;;;;;4964355;28;20043;-87
2020/12/10 06:37:29;;;;;;;2.47;1.20;;;24.00;85.70;;;;;;4950300;29;20051;-87
2020/12/10 06:40:00;;;;;;;3.88;1.40;;;24.10;84.90;;;;;;4966141;29;20047;-87
2020/12/10 06:42:44;;;;;;;5.13;1.30;;;24.10;85.70;;;;;;4948375;29;20023;-87
2020/12/10 06:45:32;;;;;;;5.25;1.48;;;24.10;86.80;;;;;;4948410;29;20374;-87
2020/12/10 06:48:00;;;;;;;4.22;1.13;;;24.00;86.60;;;;;;4948350;29;20047;-87
2020/12/10 06:50:32;;;;;;;2.97;1.17;;;24.00;86.20;;;;;;4949371;29;20039;-86
2020/12/10 06:53:18;;;;;;;4.22;1.25;;;24.00;86.90;;;;;;4949376;29;20039;-88
2020/12/10 06:55:58;;;;;;;4.72;1.40;;;24.00;86.50;;;;;;4948997;29;20054;-87
2020/12/10 06:58:41;;;;;;;4.18;1.23;;;24.00;86.00;;;;;;4964640;29;20031;-87
2020/12/10 07:01:26;;;;;;;2.70;1.17;;;24.00;85.80;;;;;;4965845;29;20027;-87
2020/12/10 07:04:18;;;;;;;3.17;0.98;;;24.00;86.00;;;;;;4965724;29;20071;-87
2020/12/10 07:07:06;;;;;;;4.80;1.30;;;23.90;86.60;;;;;;4959645;28;20046;-88
2020/12/10 07:09:56;;;;;;;2.50;1.15;;;23.90;86.20;;;;;;4944627;29;20038;-88
2020/12/10 07:12:27;;;;;;;4.68;1.17;;;24.00;85.80;;;;;;4948531;29;20110;-88
2020/12/10 07:15:14;;;;;;;4.13;1.45;;;24.00;85.40;;;;;;4949275;29;20047;-88
2020/12/10 07:17:41;;;;;;;5.15;1.10;;;24.00;85.70;;;;;;4951697;29;20095;-88
2020/12/10 07:20:08;;;;;;;2.00;0.90;;;24.00;86.20;;;;;;4967562;29;20108;-87
2020/12/10 07:22:34;;;;;;;1.73;1.02;;;23.90;86.10;;;;;;4968425;29;20106;-88
2020/12/10 07:25:01;;;;;;;1.80;0.88;;;23.90;86.60;;;;;;4951563;29;20111;-88
2020/12/10 07:27:27;;;;;;;3.28;1.02;;;23.80;86.70;;;;;;4950963;29;20414;-88
2020/12/10 07:29:54;;;;;;;2.42;1.23;;;23.60;88.10;;;;;;4967536;29;20071;-87
2020/12/10 07:32:21;;;;;;;3.05;1.10;;;23.50;89.30;;;;;;4968060;29;20031;-87
2020/12/10 07:34:47;;;;;;;2.63;1.10;;;23.40;90.00;;;;;;4951156;29;20035;-87
2020/12/10 07:37:16;;;;;;;2.95;1.40;;;23.40;90.60;;;;;;4968424;29;20032;-87
2020/12/10 07:39:43;;;;;;;2.30;0.90;;;23.40;90.50;;;;;;4968568;29;20303;-88
2020/12/10 07:42:17;;;;;;;2.28;1.27;;;23.40;90.60;;;;;;4968200;28;20311;-87
2020/12/10 07:44:44;;;;;;;1.85;1.15;;;23.40;90.40;;;;;;4968548;29;20031;-87
2020/12/10 07:47:12;;;;;;;0.98;0.80;;;23.50;90.50;;;;;;4967089;28;20047;-87
2020/12/10 07:49:39;;;;;;;1.15;0.70;;;23.50;90.60;;;;;;4951244;29;20349;-87
2020/12/10 07:52:12;;;;;;;2.95;0.90;;;23.40;90.70;;;;;;4951080;29;20119;-87
2020/12/10 07:54:47;;;;;;;5.18;1.70;;;23.40;90.70;;;;;;4967918;29;20050;-86
2020/12/10 07:57:34;;;;;;;1.25;0.65;;;23.40;90.90;;;;;;4968079;29;20031;-85
2020/12/10 08:00:09;;;;;;;2.25;0.70;;;23.40;91.10;;;;;;4950891;29;20038;-86
2020/12/10 08:02:54;;;;;;;1.92;0.90;;;23.30;91.10;;;;;;4950892;29;20031;-88
2020/12/10 08:05:21;;;;;;;1.33;0.80;;;23.30;91.10;;;;;;4966755;29;20131;-87
2020/12/10 08:07:52;;;;;;;0.95;0.60;;;23.30;91.00;;;;;;4950876;29;20023;-87
2020/12/10 08:10:34;;;;;;;1.20;0.70;;;23.30;91.30;;;;;;4967575;29;20035;-87
2020/12/10 08:13:20;;;;;;;0.77;0.70;;;23.20;91.40;;;;;;4950696;29;20027;-88
2020/12/10 08:15:50;;;;;;;3.10;1.20;;;23.20;91.80;;;;;;4950901;29;20039;-88
2020/12/10 08:18:19;;;;;;;1.40;1.00;;;23.20;92.00;;;;;;4950381;29;20103;-87
2020/12/10 08:20:51;;;;;;;1.92;0.90;;;23.20;91.90;;;;;;4970377;29;20040;-88
2020/12/10 08:23:19;;;;;;;1.17;0.80;;;23.10;91.90;;;;;;4951017;29;20121;-88
2020/12/10 08:25:48;;;;;;;1.95;0.85;;;23.10;92.00;;;;;;4967552;28;20167;-87
2020/12/10 08:28:15;;;;;;;1.40;0.73;;;23.10;92.00;;;;;;4967224;29;20027;-87
2020/12/10 08:30:54;;;;;;;1.40;0.82;;;23.10;91.90;;;;;;4966540;29;20234;-87
2020/12/10 08:33:21;;;;;;;2.80;0.88;;;23.10;92.10;;;;;;4967431;29;20027;-87
2020/12/10 08:35:48;;;;;;;3.17;1.40;;;23.10;92.20;;;;;;4966186;29;20039;-87
2020/12/10 08:38:16;;;;;;;1.48;0.95;;;23.00;92.70;;;;;;4967421;29;20092;-87
2020/12/10 08:40:43;;;;;;;3.25;0.77;;;23.00;92.40;;;;;;4950236;29;20035;-88
2020/12/10 08:43:14;;;;;;;2.42;0.80;;;23.00;92.40;;;;;;4950043;29;20070;-87
2020/12/10 08:45:45;;;;;;;2.10;0.70;;;23.00;92.60;;;;;;4950294;29;20031;-88
2020/12/10 08:48:15;;;;;;;1.52;0.70;;;23.00;92.50;;;;;;4949901;28;20039;-87
2020/12/10 08:50:56;;;;;;;3.25;1.10;;;22.90;92.70;;;;;;4950379;29;20058;-88
2020/12/10 08:53:23;;;;;;;2.75;0.90;;;22.90;92.90;;;;;;4949953;29;20034;-88
2020/12/10 08:55:55;;;;;;;0.90;0.80;;;22.90;93.10;;;;;;4949974;29;20031;-87
2020/12/10 08:58:27;;;;;;;0.80;0.70;;;22.80;93.20;;;;;;4949985;29;20071;-87
2020/12/10 09:00:55;;;;;;;4.88;1.02;;;22.80;93.20;;;;;;4950290;29;20070;-87
2020/12/10 09:03:23;;;;;;;1.70;0.85;;;22.80;92.80;;;;;;4949879;29;20031;-87
2020/12/10 09:05:53;;;;;;;1.92;0.80;;;22.80;92.40;;;;;;4949938;29;20118;-87
2020/12/10 09:08:20;;;;;;;1.63;0.80;;;22.90;92.30;;;;;;4966079;29;20214;-88
2020/12/10 09:10:47;;;;;;;3.30;0.80;;;22.90;91.90;;;;;;4950125;29;20059;-88
2020/12/10 09:13:13;;;;;;;1.95;0.70;;;22.90;92.00;;;;;;4949865;29;20187;-88
2020/12/10 09:15:42;;;;;;;1.75;0.82;;;23.00;91.80;;;;;;4965596;29;20039;-88
2020/12/10 09:18:09;;;;;;;3.38;0.90;;;23.00;91.70;;;;;;4949632;29;20030;-87
2020/12/10 09:20:36;;;;;;;1.30;0.93;;;23.00;91.40;;;;;;4966951;29;20035;-87
2020/12/10 09:23:02;;;;;;;2.45;0.88;;;23.00;91.00;;;;;;4966483;29;20027;-87
2020/12/10 09:25:29;;;;;;;3.17;0.63;;;23.10;90.80;;;;;;4965897;29;20031;-88
2020/12/10 09:27:56;;;;;;;1.58;0.82;;;23.10;90.70;;;;;;4948998;29;20319;-88
2020/12/10 09:30:22;;;;;;;1.70;0.60;;;23.20;90.40;;;;;;4949095;29;20079;-88
2020/12/10 09:32:49;;;;;;;0.65;0.60;;;23.20;90.00;;;;;;4965270;29;20027;-87
2020/12/10 09:35:16;;;;;;;1.48;0.77;;;23.30;88.80;;;;;;4965557;29;20201;-88
2020/12/10 09:37:43;;;;;;;1.90;0.68;;;23.40;88.50;;;;;;4966560;28;20038;-87
2020/12/10 09:40:12;;;;;;;0.88;0.70;;;23.40;88.20;;;;;;4966491;29;20062;-88
2020/12/10 09:42:40;;;;;;;2.13;0.63;;;23.50;87.60;;;;;;4966533;28;20223;-88
2020/12/10 09:45:08;;;;;;;1.67;0.50;;;23.50;87.90;;;;;;4948886;29;20031;-87
2020/12/10 09:47:35;;;;;;;0.90;0.80;;;23.50;87.80;;;;;;4949063;29;20110;-87
2020/12/10 09:50:03;;;;;;;1.98;0.70;;;23.60;87.70;;;;;;4950320;29;20319;-86
2020/12/10 09:52:31;;;;;;;0.73;0.60;;;23.60;87.80;;;;;;4944474;29;20027;-85
2020/12/10 09:55:10;;;;;;;1.13;0.60;;;23.60;87.70;;;;;;4949879;29;20042;-87
2020/12/10 09:57:37;;;;;;;0.43;0.43;;;23.60;87.70;;;;;;4966070;29;20023;-87
2020/12/10 10:00:07;;;;;;;1.10;0.60;;;23.70;87.60;;;;;;4965977;29;20035;-86
2020/12/10 10:02:34;;;;;;;1.73;0.88;;;23.60;87.40;;;;;;4966099;29;20025;-86
2020/12/10 10:05:02;;;;;;;0.65;0.57;;;23.60;87.60;;;;;;4966222;29;20106;-87
2020/12/10 10:07:29;;;;;;;1.10;0.70;;;23.70;88.00;;;;;;4965976;29;20043;-88
2020/12/10 10:09:55;;;;;;;1.50;0.80;;;23.70;88.10;;;;;;4948567;29;20042;-87
2020/12/10 10:12:22;;;;;;;2.30;1.17;;;23.60;87.80;;;;;;4948757;29;20027;-86
2020/12/10 10:14:48;;;;;;;4.38;1.70;;;23.70;88.10;;;;;;4948490;29;20095;-86
2020/12/10 10:17:15;;;;;;;7.18;3.17;;;23.70;88.50;;;;;;4948206;29;20055;-86
2020/12/10 10:19:42;;;;;;;4.18;2.28;;;23.60;88.10;;;;;;4965746;29;20031;-86
2020/12/10 10:22:10;;;;;;;2.83;1.85;;;23.60;88.40;;;;;;4948997;29;20023;-89
2020/12/10 10:24:36;;;;;;;1.58;0.90;;;23.60;88.50;;;;;;4966694;29;20039;-89
2020/12/10 10:27:04;;;;;;;4.07;1.23;;;23.60;88.40;;;;;;4949479;29;20070;-91
2020/12/10 10:29:57;;;;;;;3.30;1.17;;;23.60;88.90;;;;;;4966941;29;20111;-92
2020/12/10 10:32:23;;;;;;;3.00;1.33;;;23.60;88.30;;;;;;4947983;29;20209;-93
2020/12/10 10:34:50;;;;;;;2.92;1.60;;;23.60;88.30;;;;;;4949735;29;20081;-91
2020/12/10 10:37:16;;;;;;;2.75;1.25;;;23.60;88.90;;;;;;4949081;29;20035;-86
2020/12/10 10:39:43;;;;;;;10.05;1.80;;;23.60;89.10;;;;;;4965720;29;20370;-87
2020/12/10 10:42:10;;;;;;;2.47;1.33;;;23.50;88.90;;;;;;4965576;28;20054;-86
2020/12/10 10:44:36;;;;;;;1.15;0.60;;;23.50;89.10;;;;;;4948350;29;20039;-84
2020/12/10 10:47:03;;;;;;;1.15;0.93;;;23.50;89.40;;;;;;4964078;28;20035;-87
2020/12/10 10:49:29;;;;;;;3.40;0.90;;;23.50;89.30;;;;;;4966065;28;20082;-86
2020/12/10 10:51:56;;;;;;;1.02;0.77;;;23.50;89.40;;;;;;4951961;29;20035;-86
2020/12/10 10:54:23;;;;;;;1.92;1.00;;;23.50;90.00;;;;;;4968181;29;20063;-86
2020/12/10 10:56:49;;;;;;;2.72;1.42;;;23.60;90.00;;;;;;4951725;29;20197;-88
2020/12/10 10:59:16;;;;;;;2.80;1.27;;;23.50;89.70;;;;;;4951864;29;20029;-88
2020/12/10 11:01:43;;;;;;;2.47;1.42;;;23.50;90.10;;;;;;4969416;29;20027;-86
2020/12/10 11:04:09;;;;;;;3.20;1.20;;;23.50;90.00;;;;;;4951726;28;20106;-87
2020/12/10 11:06:36;;;;;;;1.90;1.20;;;23.50;90.00;;;;;;4952626;29;20287;-88
2020/12/10 11:09:03;;;;;;;4.15;1.23;;;23.60;90.00;;;;;;4951992;29;20034;-88
2020/12/10 11:11:29;;;;;;;3.70;1.08;;;23.60;90.00;;;;;;4970258;29;20035;-88
2020/12/10 11:13:56;;;;;;;7.05;1.20;;;23.60;89.60;;;;;;4952799;29;20059;-87
2020/12/10 11:16:23;;;;;;;2.83;1.17;;;23.70;89.50;;;;;;4971145;29;20039;-87
2020/12/10 11:18:50;;;;;;;2.70;1.98;;;23.80;89.50;;;;;;4953222;29;20050;-89
2020/12/10 11:21:16;;;;;;;1.35;1.00;;;23.80;89.60;;;;;;4953059;29;20079;-88
2020/12/10 11:23:43;;;;;;;2.28;1.20;;;23.80;88.90;;;;;;4951620;29;20061;-87
2020/12/10 11:26:12;;;;;;;2.17;1.02;;;23.90;88.50;;;;;;4951866;29;20086;-86
2020/12/10 11:28:39;;;;;;;8.13;3.90;;;24.00;88.30;;;;;;4951786;29;20031;-86
2020/12/10 11:31:05;;;;;;;7.68;3.72;;;23.90;88.00;;;;;;4967818;29;20411;-86
2020/12/10 11:33:32;;;;;;;4.72;2.60;;;24.00;88.50;;;;;;4951187;29;20042;-86
2020/12/10 11:36:01;;;;;;;7.38;3.50;;;24.00;88.50;;;;;;4968906;29;20216;-86
2020/12/10 11:38:28;;;;;;;31.17;4.65;;;24.10;88.10;;;;;;4968488;29;20091;-87
2020/12/10 11:40:54;;;;;;;26.55;5.88;;;24.10;87.70;;;;;;4951175;29;20042;-85
2020/12/10 11:43:21;;;;;;;32.65;7.78;;;24.20;88.30;;;;;;4967102;28;20056;-86
2020/12/10 11:45:48;;;;;;;22.15;3.85;;;24.30;88.60;;;;;;4951410;29;20059;-86
2020/12/10 11:48:14;;;;;;;28.00;3.97;;;24.40;89.40;;;;;;4986668;28;20039;-85
2020/12/10 11:50:43;;;;;;;17.60;2.45;;;24.50;88.90;;;;;;4987799;28;20066;-85
2020/12/10 11:53:10;;;;;;;27.33;3.28;;;24.50;89.10;;;;;;4970475;28;20061;-87
2020/12/10 11:55:37;;;;;;;43.38;4.95;;;24.50;88.40;;;;;;4969918;28;20030;-87
2020/12/10 11:58:03;;;;;;;53.63;7.20;;;24.40;89.20;;;;;;4969717;28;20373;-85
2020/12/10 12:00:31;;;;;;;27.58;4.00;;;24.30;90.30;;;;;;4987398;28;20034;-86
2020/12/10 12:02:59;;;;;;;25.48;4.03;;;24.40;90.20;;;;;;4986469;28;20031;-87
2020/12/10 12:05:26;;;;;;;48.20;6.15;;;24.50;90.40;;;;;;4969810;28;20093;-87
2020/12/10 12:08:07;;;;;;;50.05;5.60;;;24.60;90.00;;;;;;4969628;28;20207;-89
2020/12/10 12:10:38;;;;;;;22.13;5.28;;;24.60;90.10;;;;;;4971816;28;20038;-92
2020/12/10 12:13:27;;;;;;;15.50;3.45;;;24.60;90.30;;;;;;4955011;28;20234;-92
2020/12/10 12:16:18;;;;;;;6.38;1.88;;;24.70;90.30;;;;;;4987913;28;20070;-91
2020/12/10 12:19:27;;;;;;;2.75;1.20;;;24.80;89.40;;;;;;4963629;28;20030;-90
2020/12/10 12:22:14;;;;;;;4.60;1.40;;;24.80;88.60;;;;;;4932136;29;20036;-91
2020/12/10 12:24:44;;;;;;;3.88;1.38;;;24.90;88.30;;;;;;4933916;29;20036;-91
2020/12/10 12:27:11;;;;;;;15.02;1.92;;;24.90;88.50;;;;;;4915675;29;20099;-91
2020/12/10 12:29:43;;;;;;;5.80;1.40;;;24.80;88.50;;;;;;4947979;29;20039;-92
2020/12/10 12:32:09;;;;;;;4.32;1.52;;;24.90;88.60;;;;;;4948301;29;20077;-92
2020/12/10 12:34:36;;;;;;;2.60;1.33;;;24.90;87.90;;;;;;4931476;29;20039;-91
2020/12/10 12:37:04;;;;;;;2.95;1.33;;;25.10;88.00;;;;;;4931669;29;20028;-92
2020/12/10 12:39:31;;;;;;;3.90;1.60;;;25.20;86.30;;;;;;4931115;29;20316;-89
2020/12/10 12:41:57;;;;;;;3.50;1.00;;;25.40;88.30;;;;;;4946967;29;20210;-89
2020/12/10 12:44:24;;;;;;;3.50;1.13;;;25.40;86.20;;;;;;4931895;29;20042;-90
2020/12/10 12:46:53;;;;;;;6.47;1.10;;;25.60;86.70;;;;;;4922759;29;20047;-91
2020/12/10 12:49:33;;;;;;;1.73;1.02;;;25.60;85.90;;;;;;4912435;29;20044;-89
2020/12/10 12:52:09;;;;;;;1.27;0.90;;;25.60;86.60;;;;;;4912998;29;20031;-90
2020/12/10 12:54:37;;;;;;;2.33;1.52;;;25.60;86.30;;;;;;4912009;29;20055;-90
2020/12/10 12:57:05;;;;;;;5.65;1.63;;;25.80;86.60;;;;;;4928085;29;20220;-91
2020/12/10 12:59:31;;;;;;;17.25;3.85;;;25.90;86.50;;;;;;4912574;29;20032;-90
2020/12/10 13:02:01;;;;;;;12.75;3.40;;;26.00;84.80;;;;;;4911753;29;20056;-90
2020/12/10 13:04:28;;;;;;;9.15;2.42;;;26.10;84.80;;;;;;4912120;29;20032;-93